createdAt,value
2018-09-26T00:01:07.081Z,1.30
2018-09-26T00:04:14.852Z,1.27
2018-09-26T00:07:18.030Z,1.10
2018-09-26T00:10:21.234Z,1.30
2018-09-26T00:13:24.493Z,0.97
2018-09-26T00:16:27.642Z,1.13
2018-09-26T00:19:30.803Z,0.90
2018-09-26T00:22:33.986Z,1.20
2018-09-26T00:25:37.181Z,1.30
2018-09-26T00:28:40.385Z,1.30
2018-09-26T00:31:43.596Z,1.83
2018-09-26T00:34:46.855Z,1.50
2018-09-26T00:37:51.524Z,1.50
2018-09-26T00:40:54.693Z,0.97
2018-09-26T00:43:57.888Z,1.10
2018-09-26T00:47:01.219Z,1.30
2018-09-26T00:50:04.379Z,1.40
2018-09-26T00:53:07.563Z,2.37
2018-09-26T00:56:10.752Z,1.40
2018-09-26T00:59:13.961Z,1.37
2018-09-26T01:02:17.141Z,1.50
2018-09-26T01:05:20.386Z,1.40
2018-09-26T01:08:23.512Z,1.60
2018-09-26T01:11:27.823Z,1.73
2018-09-26T01:14:32.082Z,1.57
2018-09-26T01:17:35.198Z,1.20
2018-09-26T01:20:40.706Z,1.80
2018-09-26T01:23:43.937Z,1.47
2018-09-26T01:26:47.084Z,1.70
2018-09-26T01:29:50.285Z,1.30
2018-09-26T01:32:53.559Z,1.97
2018-09-26T01:35:56.814Z,1.40
2018-09-26T01:39:00.051Z,1.67
2018-09-26T01:42:03.314Z,1.27
2018-09-26T01:45:06.601Z,2.00
2018-09-26T01:48:09.893Z,1.57
2018-09-26T01:51:13.125Z,1.80
2018-09-26T01:54:16.318Z,1.67
2018-09-26T01:57:19.582Z,1.70
2018-09-26T02:00:22.786Z,1.80
2018-09-26T02:03:26.062Z,1.10
2018-09-26T02:06:29.275Z,1.30
2018-09-26T02:09:32.588Z,1.80
2018-09-26T02:12:35.877Z,1.47
2018-09-26T02:15:39.179Z,1.90
2018-09-26T02:18:42.430Z,2.03
2018-09-26T02:21:45.633Z,1.63
2018-09-26T02:24:48.827Z,1.70
2018-09-26T02:27:52.204Z,2.10
2018-09-26T02:30:55.578Z,1.40
2018-09-26T02:33:58.862Z,1.67
2018-09-26T02:37:02.087Z,1.53
2018-09-26T02:40:05.381Z,1.77
2018-09-26T02:43:08.593Z,1.63
2018-09-26T02:46:11.781Z,1.60
2018-09-26T02:49:14.930Z,1.47
2018-09-26T02:52:18.211Z,3.33
2018-09-26T02:55:21.347Z,2.17
2018-09-26T02:58:24.526Z,1.90
2018-09-26T03:01:27.851Z,2.23
2018-09-26T03:04:31.143Z,1.63
2018-09-26T03:07:34.306Z,2.10
2018-09-26T03:10:37.545Z,1.83
2018-09-26T03:13:40.729Z,1.90
2018-09-26T03:16:43.893Z,1.40
2018-09-26T03:19:47.060Z,1.30
2018-09-26T03:22:50.307Z,2.17
2018-09-26T03:25:53.504Z,2.10
2018-09-26T03:28:56.783Z,1.93
2018-09-26T03:31:59.984Z,2.37
2018-09-26T03:35:03.297Z,1.93
2018-09-26T03:38:06.546Z,1.93
2018-09-26T03:41:09.697Z,1.87
2018-09-26T03:44:12.859Z,2.60
2018-09-26T03:47:16.054Z,2.97
2018-09-26T03:50:19.276Z,3.40
2018-09-26T03:53:22.462Z,1.90
2018-09-26T03:56:25.616Z,1.60
2018-09-26T03:59:28.761Z,2.30
2018-09-26T04:02:31.919Z,2.87
2018-09-26T04:05:35.227Z,2.70
2018-09-26T04:08:38.613Z,2.97
2018-09-26T04:11:42.173Z,2.50
2018-09-26T04:14:45.503Z,2.90
2018-09-26T04:17:48.728Z,3.10
2018-09-26T04:20:52.425Z,2.80
2018-09-26T04:23:55.625Z,3.43
2018-09-26T04:26:59.688Z,3.00
2018-09-26T04:30:02.789Z,2.57
2018-09-26T04:33:06.403Z,2.13
2018-09-26T04:36:09.593Z,2.53
2018-09-26T04:39:13.026Z,2.87
2018-09-26T04:42:16.275Z,2.47
2018-09-26T04:45:19.458Z,2.90
2018-09-26T04:48:22.757Z,2.67
2018-09-26T04:51:26.042Z,1.80
2018-09-26T04:54:29.195Z,2.90
2018-09-26T04:57:32.430Z,2.77
2018-09-26T05:00:35.686Z,3.83
2018-09-26T05:03:39.053Z,2.80
2018-09-26T05:06:42.523Z,2.27
2018-09-26T05:09:45.797Z,2.87
2018-09-26T05:12:49.029Z,2.67
2018-09-26T05:15:52.410Z,2.63
2018-09-26T05:18:55.699Z,2.63
2018-09-26T05:21:58.919Z,2.37
2018-09-26T05:25:02.192Z,2.63
2018-09-26T05:28:05.498Z,3.33
2018-09-26T05:31:08.933Z,3.23
2018-09-26T05:34:12.181Z,3.20
2018-09-26T05:37:15.766Z,2.90
2018-09-26T05:40:18.968Z,2.77
2018-09-26T05:43:22.268Z,2.50
2018-09-26T05:46:25.437Z,2.57
2018-09-26T05:49:28.623Z,2.73
2018-09-26T05:52:31.871Z,3.60
2018-09-26T05:55:35.136Z,2.13
2018-09-26T05:58:38.436Z,2.47
2018-09-26T06:01:41.850Z,3.27
2018-09-26T06:04:45.164Z,2.87
2018-09-26T06:07:48.457Z,2.87
2018-09-26T06:10:52.766Z,3.03
2018-09-26T06:13:56.114Z,2.70
2018-09-26T06:16:59.359Z,3.07
2018-09-26T06:20:02.653Z,3.07
2018-09-26T06:23:05.909Z,6.23
2018-09-26T06:26:09.044Z,7.40
2018-09-26T06:29:12.281Z,5.57
2018-09-26T06:32:15.467Z,16.03
2018-09-26T06:35:18.634Z,6.43
2018-09-26T06:38:21.843Z,6.20
2018-09-26T06:41:24.930Z,5.47
2018-09-26T06:44:28.218Z,8.53
2018-09-26T06:47:31.421Z,4.97
2018-09-26T06:50:34.497Z,4.43
2018-09-26T06:53:37.599Z,4.60
2018-09-26T06:56:40.763Z,3.97
2018-09-26T06:59:43.881Z,3.00
2018-09-26T07:02:47.046Z,2.53
2018-09-26T07:05:50.256Z,3.23
2018-09-26T07:08:53.391Z,3.73
2018-09-26T07:11:56.469Z,2.37
2018-09-26T07:14:59.745Z,2.50
2018-09-26T07:18:04.248Z,2.17
2018-09-26T07:21:07.474Z,3.63
2018-09-26T07:24:10.577Z,3.30
2018-09-26T07:27:13.810Z,3.23
2018-09-26T07:30:17.068Z,2.33
2018-09-26T07:33:20.235Z,2.50
2018-09-26T07:36:23.463Z,2.50
2018-09-26T07:39:26.717Z,1.80
2018-09-26T07:42:29.994Z,2.13
2018-09-26T07:45:34.564Z,1.80
2018-09-26T07:48:37.784Z,2.10
2018-09-26T07:51:41.201Z,2.10
2018-09-26T07:54:44.855Z,1.90
2018-09-26T07:57:48.464Z,1.83
2018-09-26T08:00:51.968Z,1.73
2018-09-26T08:03:55.404Z,2.03
2018-09-26T08:06:58.929Z,1.60
2018-09-26T08:10:02.357Z,2.30
2018-09-26T08:13:05.605Z,2.13
2018-09-26T08:16:09.536Z,1.70
2018-09-26T08:19:12.934Z,1.50
2018-09-26T08:22:16.501Z,1.50
2018-09-26T08:25:19.793Z,1.50
2018-09-26T08:28:23.128Z,1.43
2018-09-26T08:31:26.470Z,1.20
2018-09-26T08:34:29.734Z,1.67
2018-09-26T08:37:33.027Z,1.57
2018-09-26T08:40:36.290Z,1.57
2018-09-26T08:43:39.612Z,1.50
2018-09-26T08:46:42.754Z,1.20
2018-09-26T08:49:45.865Z,1.30
2018-09-26T08:52:49.063Z,1.17
2018-09-26T08:55:52.332Z,0.90
2018-09-26T08:58:55.513Z,1.93
2018-09-26T09:01:58.682Z,1.57
2018-09-26T09:05:01.911Z,1.30
2018-09-26T09:08:05.113Z,1.50
2018-09-26T09:11:08.303Z,1.10
2018-09-26T09:14:11.514Z,1.43
2018-09-26T09:17:14.667Z,1.57
2018-09-26T09:20:17.843Z,1.50
2018-09-26T09:23:20.977Z,1.53
2018-09-26T09:26:24.272Z,1.80
2018-09-26T09:29:27.437Z,1.90
2018-09-26T09:32:30.658Z,1.73
2018-09-26T09:35:33.830Z,1.67
2018-09-26T09:38:37.105Z,1.47
2018-09-26T09:41:40.317Z,1.43
2018-09-26T09:44:43.721Z,1.33
2018-09-26T09:47:46.977Z,1.50
2018-09-26T09:50:50.248Z,1.10
2018-09-26T09:53:53.476Z,1.27
2018-09-26T09:56:56.727Z,1.33
2018-09-26T09:59:59.949Z,1.30
2018-09-26T10:03:03.383Z,1.17
2018-09-26T10:06:06.642Z,0.70
2018-09-26T10:09:09.873Z,0.63
2018-09-26T10:12:13.139Z,1.00
2018-09-26T10:15:16.426Z,0.43
2018-09-26T10:18:19.590Z,0.70
2018-09-26T10:21:22.770Z,0.80
2018-09-26T10:24:26.066Z,0.80
2018-09-26T10:27:29.947Z,0.80
2018-09-26T10:30:33.344Z,0.80
2018-09-26T10:33:37.456Z,0.80
2018-09-26T10:36:41.217Z,0.97
2018-09-26T10:39:44.412Z,0.70
2018-09-26T10:42:47.687Z,0.73
2018-09-26T10:45:50.862Z,0.70
2018-09-26T10:48:54.090Z,0.80
2018-09-26T10:51:57.239Z,0.63
2018-09-26T10:55:00.486Z,0.93
2018-09-26T10:58:03.637Z,0.70
2018-09-26T11:01:07.226Z,0.43
2018-09-26T11:04:10.481Z,0.87
2018-09-26T11:07:13.583Z,0.67
2018-09-26T11:10:16.763Z,0.60
2018-09-26T11:13:19.953Z,0.60
2018-09-26T11:16:23.939Z,0.50
2018-09-26T11:19:27.126Z,0.60
2018-09-26T11:22:30.330Z,0.70
2018-09-26T11:25:33.473Z,1.13
2018-09-26T11:28:36.624Z,0.60
2018-09-26T11:31:39.748Z,0.97
2018-09-26T11:34:43.045Z,0.60
2018-09-26T11:37:46.397Z,0.80
2018-09-26T11:40:49.623Z,0.60
2018-09-26T11:43:53.105Z,0.50
2018-09-26T11:46:56.311Z,0.87
2018-09-26T11:49:59.541Z,0.63
2018-09-26T11:53:02.861Z,0.40
2018-09-26T11:56:06.296Z,0.70
2018-09-26T11:59:09.534Z,0.50
2018-09-26T12:02:12.907Z,0.57
2018-09-26T12:05:16.114Z,0.90
2018-09-26T12:08:19.609Z,0.83
2018-09-26T12:11:22.699Z,0.77
2018-09-26T12:14:26.122Z,1.30
2018-09-26T12:17:29.355Z,0.90
2018-09-26T12:20:32.578Z,0.97
2018-09-26T12:23:35.915Z,0.90
2018-09-26T12:26:39.212Z,1.40
2018-09-26T12:29:42.385Z,0.90
2018-09-26T12:32:45.639Z,0.90
2018-09-26T12:35:48.898Z,0.90
2018-09-26T12:38:52.160Z,0.63
2018-09-26T12:41:55.438Z,0.60
2018-09-26T12:44:58.727Z,0.60
2018-09-26T12:48:01.961Z,0.67
2018-09-26T12:51:05.141Z,0.93
2018-09-26T12:57:22.687Z,0.83
2018-09-26T13:00:26.484Z,0.87
2018-09-26T13:03:29.664Z,1.03
2018-09-26T13:06:33.042Z,0.73
2018-09-26T13:09:36.357Z,0.80
2018-09-26T13:12:39.585Z,0.97
2018-09-26T13:15:42.851Z,1.00
2018-09-26T13:18:46.127Z,0.90
2018-09-26T13:21:49.325Z,1.00
2018-09-26T13:24:52.600Z,0.90
2018-09-26T13:27:55.838Z,1.20
2018-09-26T13:30:59.071Z,1.27
2018-09-26T13:34:02.442Z,1.60
2018-09-26T13:37:05.678Z,1.83
2018-09-26T13:40:09.028Z,1.17
2018-09-26T13:43:12.335Z,1.53
2018-09-26T13:46:15.645Z,1.00
2018-09-26T13:49:18.812Z,1.23
2018-09-26T13:52:22.048Z,1.47
2018-09-26T13:55:25.401Z,0.77
2018-09-26T13:58:28.623Z,1.10
2018-09-26T14:01:32.086Z,0.80
2018-09-26T14:04:35.966Z,0.90
2018-09-26T14:07:39.163Z,0.87
2018-09-26T14:10:42.409Z,0.90
2018-09-26T14:13:45.614Z,0.60
2018-09-26T14:16:48.921Z,0.80
2018-09-26T14:20:15.286Z,0.70
2018-09-26T14:23:24.694Z,0.70
2018-09-26T14:26:28.175Z,0.87
2018-09-26T14:29:31.588Z,0.70
2018-09-26T14:32:35.005Z,0.63
2018-09-26T14:35:38.422Z,0.67
2018-09-26T14:38:41.894Z,0.57
2018-09-26T14:41:45.326Z,0.63
2018-09-26T14:44:48.762Z,0.90
2018-09-26T14:47:52.159Z,0.70
2018-09-26T14:50:55.555Z,0.60
2018-09-26T14:53:59.025Z,0.60
2018-09-26T14:57:02.390Z,0.60
2018-09-26T15:00:07.141Z,0.50
2018-09-26T15:03:10.583Z,0.60
2018-09-26T15:06:14.058Z,0.63
2018-09-26T15:09:17.574Z,0.60
2018-09-26T15:12:20.972Z,0.57
2018-09-26T15:15:24.365Z,0.50
2018-09-26T15:18:27.756Z,0.80
2018-09-26T15:21:31.019Z,0.80
2018-09-26T15:24:34.387Z,0.70
2018-09-26T15:27:37.821Z,0.50
2018-09-26T15:30:41.178Z,0.60
2018-09-26T15:33:44.693Z,0.53
2018-09-26T15:36:48.055Z,0.60
2018-09-26T15:39:51.461Z,0.80
2018-09-26T15:42:54.885Z,0.97
2018-09-26T15:45:58.209Z,0.60
2018-09-26T15:49:01.550Z,0.53
2018-09-26T15:52:05.036Z,0.50
2018-09-26T15:55:08.598Z,0.50
2018-09-26T15:58:11.953Z,0.57
2018-09-26T16:01:15.290Z,0.50
2018-09-26T16:04:25.689Z,0.47
2018-09-26T16:07:28.874Z,0.70
2018-09-26T16:10:32.108Z,0.57
2018-09-26T16:13:35.446Z,0.60
2018-09-26T16:16:38.773Z,0.60
2018-09-26T16:19:42.115Z,0.40
2018-09-26T16:22:45.396Z,0.80
2018-09-26T16:25:48.596Z,0.40
2018-09-26T16:28:51.735Z,0.60
2018-09-26T16:31:54.896Z,0.60
2018-09-26T16:34:58.078Z,0.87
2018-09-26T16:38:01.281Z,0.60
2018-09-26T16:41:04.803Z,0.60
2018-09-26T16:44:07.994Z,3.63
2018-09-26T16:47:11.207Z,3.00
2018-09-26T16:50:14.593Z,1.07
2018-09-26T16:53:17.972Z,0.47
2018-09-26T16:56:21.287Z,0.60
2018-09-26T16:59:24.381Z,0.70
2018-09-26T17:02:28.062Z,0.67
2018-09-26T17:05:31.437Z,0.73
2018-09-26T17:08:34.573Z,0.50
2018-09-26T17:11:37.883Z,0.80
2018-09-26T17:14:42.294Z,0.60
2018-09-26T17:17:45.614Z,0.37
2018-09-26T17:20:49.004Z,0.90
2018-09-26T17:23:52.367Z,0.60
2018-09-26T17:26:55.671Z,0.73
2018-09-26T17:29:59.015Z,0.67
2018-09-26T17:33:02.329Z,0.50
2018-09-26T17:36:05.883Z,0.80
2018-09-26T17:39:09.583Z,0.70
2018-09-26T17:42:13.060Z,0.80
2018-09-26T17:45:16.308Z,0.80
2018-09-26T17:48:19.652Z,6.57
2018-09-26T17:51:23.036Z,2.37
2018-09-26T17:54:26.258Z,0.97
2018-09-26T17:57:29.611Z,1.33
2018-09-26T18:00:32.870Z,1.03
2018-09-26T18:03:36.420Z,0.60
2018-09-26T18:06:39.797Z,0.83
2018-09-26T18:09:42.982Z,0.70
2018-09-26T18:12:46.360Z,0.40
2018-09-26T18:15:49.558Z,0.50
2018-09-26T18:18:52.841Z,0.60
2018-09-26T18:21:56.103Z,0.53
2018-09-26T18:24:59.445Z,0.83
2018-09-26T18:28:02.850Z,0.63
2018-09-26T18:31:06.209Z,1.27
2018-09-26T18:34:09.550Z,0.80
2018-09-26T18:37:12.844Z,0.90
2018-09-26T18:40:16.079Z,0.47
2018-09-26T18:43:19.451Z,0.43
2018-09-26T18:46:22.871Z,0.57
2018-09-26T18:49:26.198Z,0.80
2018-09-26T18:52:29.611Z,0.57
2018-09-26T18:55:32.931Z,1.13
2018-09-26T18:58:36.249Z,1.13
2018-09-26T19:01:39.459Z,0.83
2018-09-26T19:04:43.049Z,1.00
2018-09-26T19:07:46.934Z,1.10
2018-09-26T19:10:50.275Z,0.70
2018-09-26T19:13:53.701Z,0.70
2018-09-26T19:16:57.065Z,1.43
2018-09-26T19:20:00.538Z,1.10
2018-09-26T19:23:04.076Z,1.10
2018-09-26T19:26:07.334Z,1.30
2018-09-26T19:29:10.649Z,1.30
2018-09-26T19:32:14.008Z,2.20
2018-09-26T19:35:17.311Z,1.73
2018-09-26T19:38:20.580Z,1.67
2018-09-26T19:41:24.000Z,1.33
2018-09-26T19:44:27.341Z,2.30
2018-09-26T19:47:30.632Z,3.50
2018-09-26T19:50:33.921Z,2.07
2018-09-26T19:53:37.755Z,3.00
2018-09-26T19:56:41.173Z,2.43
2018-09-26T19:59:44.456Z,1.67
2018-09-26T20:02:47.844Z,2.60
2018-09-26T20:05:51.213Z,3.03
2018-09-26T20:08:54.557Z,2.50
2018-09-26T20:11:57.891Z,2.70
2018-09-26T20:15:01.243Z,3.23
2018-09-26T20:18:04.630Z,1.37
2018-09-26T20:21:07.996Z,1.20
2018-09-26T20:24:11.489Z,1.47
2018-09-26T20:27:14.957Z,1.53
2018-09-26T20:30:18.393Z,1.20
2018-09-26T20:33:21.949Z,2.60
2018-09-26T20:36:25.393Z,1.40
2018-09-26T20:39:28.895Z,3.17
2018-09-26T20:42:32.218Z,2.83
2018-09-26T20:45:35.441Z,1.40
2018-09-26T20:48:38.730Z,2.73
2018-09-26T20:51:41.973Z,2.47
2018-09-26T20:54:45.288Z,1.80
2018-09-26T20:57:48.468Z,2.03
2018-09-26T21:00:51.650Z,1.27
2018-09-26T21:03:54.905Z,2.43
2018-09-26T21:06:58.145Z,2.10
2018-09-26T21:10:01.377Z,2.03
2018-09-26T21:13:04.684Z,1.20
2018-09-26T21:16:07.987Z,1.63
2018-09-26T21:19:11.571Z,2.00
2018-09-26T21:22:14.813Z,2.60
2018-09-26T21:25:18.050Z,2.20
2018-09-26T21:28:21.379Z,1.43
2018-09-26T21:31:24.643Z,1.20
2018-09-26T21:34:27.962Z,1.30
2018-09-26T21:37:31.222Z,1.33
2018-09-26T21:40:34.419Z,1.70
2018-09-26T21:43:37.651Z,3.00
2018-09-26T21:46:41.066Z,1.93
2018-09-26T21:49:44.291Z,1.70
2018-09-26T21:52:47.488Z,1.70
2018-09-26T21:55:50.775Z,2.53
2018-09-26T21:58:53.995Z,2.37
2018-09-26T22:01:57.160Z,1.47
2018-09-26T22:05:00.361Z,1.00
2018-09-26T22:08:03.621Z,1.33
2018-09-26T22:11:06.855Z,0.90
2018-09-26T22:14:10.121Z,1.53
2018-09-26T22:17:13.333Z,2.30
2018-09-26T22:20:16.610Z,2.80
2018-09-26T22:23:19.867Z,2.20
2018-09-26T22:26:23.187Z,1.80
2018-09-26T22:29:26.339Z,2.47
2018-09-26T22:32:29.499Z,2.37
2018-09-26T22:35:32.657Z,2.50
2018-09-26T22:38:35.884Z,1.83
2018-09-26T22:41:39.212Z,2.00
2018-09-26T22:44:42.323Z,2.33
2018-09-26T22:47:45.509Z,2.10
2018-09-26T22:50:48.650Z,1.97
2018-09-26T22:53:51.809Z,2.00
2018-09-26T22:56:55.013Z,2.20
2018-09-26T22:59:58.229Z,2.03
2018-09-26T23:03:01.370Z,2.03
2018-09-26T23:06:04.642Z,2.07
2018-09-26T23:09:09.942Z,1.80
2018-09-26T23:12:13.180Z,2.50
2018-09-26T23:15:16.368Z,2.33
2018-09-26T23:18:19.702Z,1.50
2018-09-26T23:21:22.964Z,1.70
2018-09-26T23:24:26.146Z,1.53
2018-09-26T23:27:29.444Z,1.90
2018-09-26T23:30:32.574Z,2.10
2018-09-26T23:33:35.761Z,1.80
2018-09-26T23:36:38.905Z,1.87
2018-09-26T23:39:42.091Z,1.83
2018-09-26T23:42:45.298Z,2.10
2018-09-26T23:45:48.513Z,2.00
2018-09-26T23:48:51.722Z,2.13
2018-09-26T23:51:54.881Z,1.90
2018-09-26T23:54:58.087Z,1.90
2018-09-26T23:58:01.266Z,1.73
